createdAt,value
2016-05-31T00:08:11.146Z,995.47
2016-05-31T00:23:11.217Z,995.47
2016-05-31T00:38:11.210Z,995.5
2016-05-31T00:53:13.720Z,995.74
2016-05-31T01:08:13.276Z,995.86
2016-05-31T01:23:17.941Z,995.99
2016-05-31T01:38:17.528Z,995.99
2016-05-31T01:53:17.412Z,995.86
2016-05-31T02:08:25.718Z,995.84
2016-05-31T02:23:11.212Z,996.13
2016-05-31T02:38:11.330Z,996.13
2016-05-31T02:53:19.402Z,996.42
2016-05-31T03:08:20.428Z,996.64
2016-05-31T03:23:17.515Z,996.6
2016-05-31T03:38:11.711Z,996.77
2016-05-31T03:53:13.266Z,996.96
2016-05-31T04:08:11.291Z,996.99
2016-05-31T04:23:17.629Z,996.99
2016-05-31T04:38:11.262Z,997.03
2016-05-31T04:53:17.366Z,997.18
2016-05-31T05:08:21.687Z,997.32
2016-05-31T05:23:15.352Z,997.44
2016-05-31T05:38:11.345Z,997.51
2016-05-31T05:53:15.432Z,997.55
2016-05-31T06:08:17.814Z,997.72
2016-05-31T06:23:13.469Z,997.62
2016-05-31T06:38:11.541Z,997.79
2016-05-31T06:53:15.690Z,997.79
2016-05-31T07:08:11.465Z,997.92
2016-05-31T07:23:13.475Z,997.89
2016-05-31T07:38:11.515Z,997.95
2016-05-31T07:53:11.477Z,997.99
2016-05-31T08:08:11.564Z,997.85
2016-05-31T08:23:11.541Z,997.94
2016-05-31T08:38:18.270Z,998.17
2016-05-31T08:53:11.497Z,998.18
2016-05-31T09:08:15.757Z,998.59
2016-05-31T09:23:11.562Z,998.63
2016-05-31T09:38:13.525Z,998.7
2016-05-31T09:53:11.533Z,998.99
2016-05-31T10:08:13.512Z,998.89
2016-05-31T10:23:15.600Z,998.89
2016-05-31T10:38:20.780Z,999.11
2016-05-31T10:53:11.554Z,999.28
2016-05-31T11:08:13.533Z,999.3
2016-05-31T11:23:17.636Z,999.19
2016-05-31T11:38:13.581Z,999.33
2016-05-31T11:53:22.137Z,999.33
2016-05-31T12:08:13.538Z,999.4
2016-05-31T12:23:11.593Z,999.36
2016-05-31T12:38:13.649Z,999.12
2016-05-31T12:53:24.783Z,999.18
2016-05-31T13:08:11.605Z,999.07
2016-05-31T13:23:11.598Z,998.97
2016-05-31T13:38:11.919Z,999.06
2016-05-31T13:53:11.804Z,999.01
2016-05-31T14:08:13.610Z,999.07
2016-05-31T14:23:17.776Z,998.93
2016-05-31T14:38:19.988Z,998.75
2016-05-31T14:53:28.309Z,998.78
2016-05-31T15:08:11.771Z,998.52
2016-05-31T15:23:11.941Z,998.76
2016-05-31T15:38:16.002Z,998.64
2016-05-31T15:53:13.806Z,998.66
2016-05-31T16:08:14.065Z,998.66
2016-05-31T16:23:16.074Z,998.6
2016-05-31T16:38:17.992Z,998.64
2016-05-31T16:53:15.920Z,998.64
2016-05-31T17:08:18.133Z,998.5
2016-05-31T17:23:13.970Z,998.91
2016-05-31T17:38:24.261Z,999.46
2016-05-31T17:53:11.941Z,999.88
2016-05-31T18:08:14.076Z,999.82
2016-05-31T18:23:13.929Z,1000.41
2016-05-31T18:38:18.173Z,1000.26
2016-05-31T18:53:16.025Z,1000.75
2016-05-31T19:08:11.862Z,1001.29
2016-05-31T19:23:19.012Z,1000.92
2016-05-31T19:38:14.115Z,1000.74
2016-05-31T19:53:14.889Z,1000.43
2016-05-31T20:08:11.929Z,1000.3
2016-05-31T20:23:14.064Z,1000.24
2016-05-31T20:38:24.590Z,1000.68
2016-05-31T20:53:11.958Z,1000.21
2016-05-31T21:08:14.091Z,1000.27
2016-05-31T21:23:16.225Z,1000.42
2016-05-31T21:38:18.312Z,1000.46
2016-05-31T21:53:18.197Z,1000.52
2016-05-31T22:08:14.049Z,1000.55
2016-05-31T22:23:11.981Z,1000.36
2016-05-31T22:38:20.412Z,1000.61
2016-05-31T22:53:18.139Z,1000.61
2016-05-31T23:08:11.930Z,1000.61
2016-05-31T23:23:12.751Z,1000.63
2016-05-31T23:38:16.198Z,1000.62
2016-05-31T23:53:11.973Z,1000.65
